createdAt,value
2022-09-23T00:01:27.649Z,82.53
2022-09-23T00:03:56.577Z,82.41
2022-09-23T00:06:25.413Z,82.30
2022-09-23T00:08:54.472Z,82.71
2022-09-23T00:11:25.706Z,82.44
2022-09-23T00:13:57.135Z,81.87
2022-09-23T00:16:32.814Z,81.45
2022-09-23T00:19:02.812Z,81.64
2022-09-23T00:21:31.090Z,82.15
2022-09-23T00:23:59.581Z,82.01
2022-09-23T00:26:28.024Z,82.60
2022-09-23T00:28:56.226Z,82.54
2022-09-23T00:31:27.073Z,82.51
2022-09-23T00:34:02.502Z,82.54
2022-09-23T00:36:32.550Z,82.39
2022-09-23T00:39:00.735Z,82.41
2022-09-23T00:41:29.075Z,82.42
2022-09-23T00:44:00.068Z,82.54
2022-09-23T00:46:45.934Z,82.93
2022-09-23T00:49:25.315Z,82.83
2022-09-23T00:52:06.420Z,82.49
2022-09-23T00:54:34.669Z,82.02
2022-09-23T00:57:04.045Z,81.95
2022-09-23T00:59:32.987Z,81.94
2022-09-23T01:02:03.101Z,81.84
2022-09-23T01:04:32.269Z,81.87
2022-09-23T01:07:00.284Z,82.38
2022-09-23T01:09:28.941Z,82.39
2022-09-23T01:12:10.264Z,82.85
2022-09-23T01:15:05.375Z,82.63
2022-09-23T01:17:51.823Z,82.85
2022-09-23T01:20:29.028Z,82.92
2022-09-23T01:23:26.693Z,82.72
2022-09-23T01:26:28.634Z,82.57
2022-09-23T01:29:15.486Z,82.51
2022-09-23T01:31:55.344Z,82.33
2022-09-23T01:34:44.631Z,82.77
2022-09-23T01:37:48.225Z,82.68
2022-09-23T01:40:16.448Z,82.84
2022-09-23T01:43:09.486Z,83.42
2022-09-23T01:45:47.348Z,83.46
2022-09-23T01:48:28.765Z,82.66
2022-09-23T01:51:03.148Z,82.41
2022-09-23T01:53:46.209Z,82.22
2022-09-23T01:56:20.831Z,82.22
2022-09-23T01:58:56.109Z,82.19
2022-09-23T02:01:41.878Z,82.49
2022-09-23T02:04:22.976Z,81.99
2022-09-23T02:07:10.392Z,81.88
2022-09-23T02:09:45.085Z,82.53
2022-09-23T02:12:21.302Z,83.71
2022-09-23T02:14:57.354Z,84.05
2022-09-23T02:17:35.631Z,83.86
2022-09-23T02:20:07.323Z,83.88
2022-09-23T02:23:00.043Z,84.22
2022-09-23T02:25:38.097Z,84.62
2022-09-23T02:28:19.416Z,84.41
2022-09-23T02:30:59.137Z,84.42
2022-09-23T02:33:38.280Z,84.37
2022-09-23T02:36:26.216Z,83.67
2022-09-23T02:38:58.915Z,83.03
2022-09-23T02:41:26.916Z,83.21
2022-09-23T02:44:10.559Z,83.08
2022-09-23T02:46:40.367Z,83.25
2022-09-23T02:49:12.778Z,83.43
2022-09-23T02:51:41.865Z,83.50
2022-09-23T02:54:15.161Z,83.38
2022-09-23T02:56:43.854Z,83.35
2022-09-23T02:59:13.213Z,83.87
2022-09-23T03:01:47.827Z,84.09
2022-09-23T03:04:18.188Z,83.72
2022-09-23T03:06:59.191Z,83.37
2022-09-23T03:09:53.330Z,82.47
2022-09-23T03:12:43.641Z,82.07
2022-09-23T03:15:37.415Z,82.08
2022-09-23T03:18:11.304Z,82.42
2022-09-23T03:20:52.830Z,82.68
2022-09-23T03:23:27.439Z,83.12
2022-09-23T03:26:01.200Z,83.19
2022-09-23T03:28:30.404Z,83.47
2022-09-23T03:31:02.029Z,83.35
2022-09-23T03:33:31.484Z,82.89
2022-09-23T03:36:29.361Z,82.98
2022-09-23T03:39:15.033Z,83.05
2022-09-23T03:41:51.387Z,83.52
2022-09-23T03:44:21.589Z,83.37
2022-09-23T03:46:53.199Z,83.56
2022-09-23T03:49:33.037Z,83.22
2022-09-23T03:52:02.620Z,82.93
2022-09-23T03:54:30.850Z,83.00
2022-09-23T03:57:00.420Z,82.76
2022-09-23T03:59:30.559Z,82.89
2022-09-23T04:01:59.746Z,82.62
2022-09-23T04:04:29.031Z,82.30
2022-09-23T04:06:57.251Z,82.26
2022-09-23T04:09:25.518Z,82.71
2022-09-23T04:11:54.395Z,82.35
2022-09-23T04:14:23.900Z,82.31
2022-09-23T04:16:52.706Z,82.29
2022-09-23T04:19:21.200Z,82.75
2022-09-23T04:21:49.843Z,83.21
2022-09-23T04:24:18.144Z,83.75
2022-09-23T04:26:46.222Z,84.05
2022-09-23T04:29:14.353Z,84.28
2022-09-23T04:31:42.646Z,84.48
2022-09-23T04:34:11.549Z,83.93
2022-09-23T04:36:40.055Z,83.65
2022-09-23T04:39:08.343Z,83.60
2022-09-23T04:41:37.590Z,83.80
2022-09-23T04:44:05.680Z,83.48
2022-09-23T04:46:34.340Z,83.27
2022-09-23T04:49:02.563Z,83.48
2022-09-23T04:51:33.949Z,82.85
2022-09-23T04:54:02.223Z,82.85
2022-09-23T04:56:35.386Z,82.26
2022-09-23T04:59:11.549Z,82.73
2022-09-23T05:01:42.307Z,82.87
2022-09-23T05:04:14.743Z,82.79
2022-09-23T05:07:02.888Z,82.83
2022-09-23T05:09:37.161Z,82.59
2022-09-23T05:12:06.946Z,82.59
2022-09-23T05:14:37.833Z,82.44
2022-09-23T05:17:16.423Z,82.47
2022-09-23T05:19:44.805Z,82.76
2022-09-23T05:22:13.007Z,82.63
2022-09-23T05:24:41.609Z,81.91
2022-09-23T05:27:09.943Z,80.28
2022-09-23T05:29:39.445Z,79.52
2022-09-23T05:32:08.200Z,79.84
2022-09-23T05:34:37.063Z,80.50
2022-09-23T05:37:05.677Z,80.58
2022-09-23T05:39:38.382Z,80.46
2022-09-23T05:42:40.053Z,80.64
2022-09-23T05:45:01.210Z,80.49
2022-09-23T05:47:45.169Z,80.60
2022-09-23T05:50:19.943Z,80.24
2022-09-23T08:55:39.621Z,34.69
2022-09-23T09:22:43.410Z,36.39
2022-09-23T09:25:41.533Z,36.50
2022-09-23T09:28:38.436Z,36.97
2022-09-23T09:31:26.967Z,37.88
2022-09-23T09:33:58.871Z,37.23
2022-09-23T09:36:43.903Z,36.64
2022-09-23T09:39:15.742Z,37.23
2022-09-23T09:41:49.649Z,37.47
2022-09-23T09:44:31.940Z,37.45
2022-09-23T09:47:09.699Z,37.22
2022-09-23T09:49:54.338Z,37.12
2022-09-23T09:52:23.124Z,36.69
2022-09-23T09:54:53.174Z,37.09
2022-09-23T09:57:32.158Z,36.59
2022-09-23T10:00:36.214Z,35.48
2022-09-23T10:03:15.671Z,35.68
2022-09-23T10:05:44.020Z,36.15
2022-09-23T10:08:35.463Z,34.83
2022-09-23T10:11:17.188Z,33.11
2022-09-23T10:14:18.227Z,33.11
2022-09-23T10:17:06.277Z,32.60
2022-09-23T10:19:44.383Z,33.15
2022-09-23T10:22:22.171Z,33.09
2022-09-23T10:24:54.890Z,33.52
2022-09-23T10:27:32.425Z,31.78
2022-09-23T10:30:14.234Z,31.57
2022-09-23T10:32:46.450Z,30.55
2022-09-23T10:35:24.886Z,29.22
2022-09-23T10:37:57.252Z,28.80
2022-09-23T10:40:57.020Z,28.61
2022-09-23T10:43:47.123Z,29.20
2022-09-23T10:46:38.636Z,28.82
2022-09-23T10:49:51.433Z,28.29
2022-09-23T10:52:49.744Z,27.95
2022-09-23T10:55:41.033Z,28.51
2022-09-23T10:58:58.497Z,29.34
2022-09-23T11:01:30.272Z,28.58
2022-09-23T11:04:37.177Z,28.22
2022-09-23T11:07:21.654Z,28.07
2022-09-23T11:10:29.280Z,28.14
2022-09-23T11:13:24.872Z,28.77
2022-09-23T11:16:24.902Z,28.53
2022-09-23T11:19:33.554Z,28.47
2022-09-23T11:22:03.085Z,29.26
2022-09-23T11:24:58.856Z,29.71
2022-09-23T11:27:35.814Z,30.18
2022-09-23T11:30:18.505Z,30.45
2022-09-23T11:33:16.496Z,30.13
2022-09-23T11:35:56.082Z,31.42
2022-09-23T11:38:48.487Z,31.37
2022-09-23T11:41:34.705Z,32.53
2022-09-23T11:44:31.198Z,33.76
2022-09-23T11:47:04.263Z,34.20
2022-09-23T11:49:39.533Z,34.65
2022-09-23T11:52:29.732Z,36.17
2022-09-23T11:55:18.915Z,38.59
2022-09-23T11:58:23.188Z,39.11
2022-09-23T12:01:45.565Z,41.13
2022-09-23T12:04:53.975Z,43.42
2022-09-23T12:07:54.719Z,43.15
2022-09-23T12:10:36.589Z,41.00
2022-09-23T12:13:18.379Z,39.88
2022-09-23T12:15:52.423Z,40.05
2022-09-23T12:18:49.623Z,39.40
2022-09-23T12:21:49.683Z,36.82
2022-09-23T12:24:37.210Z,37.38
2022-09-23T12:27:11.111Z,39.35
2022-09-23T12:29:41.764Z,40.35
2022-09-23T12:32:18.775Z,41.96
2022-09-23T12:34:52.117Z,43.62
2022-09-23T12:37:30.062Z,44.50
2022-09-23T12:40:07.696Z,44.92
2022-09-23T12:42:44.332Z,44.66
2022-09-23T12:45:35.168Z,44.44
2022-09-23T12:48:26.705Z,44.76
2022-09-23T12:51:03.857Z,44.83
2022-09-23T12:53:35.165Z,45.89
2022-09-23T12:56:21.937Z,45.84
2022-09-23T12:58:51.127Z,45.58
2022-09-23T13:01:22.760Z,45.31
2022-09-23T13:04:12.862Z,44.35
2022-09-23T13:06:53.851Z,44.35
2022-09-23T13:09:37.574Z,44.71
2022-09-23T13:12:13.612Z,45.57
2022-09-23T13:14:46.304Z,45.93
2022-09-23T13:17:44.636Z,45.34
2022-09-23T13:20:21.891Z,45.09
2022-09-23T13:22:50.110Z,45.73
2022-09-23T13:25:35.282Z,45.94
2022-09-23T13:28:13.698Z,45.36
2022-09-23T13:30:50.443Z,44.31
2022-09-23T13:33:49.166Z,44.49
2022-09-23T13:36:19.988Z,44.95
2022-09-23T13:38:48.498Z,46.02
2022-09-23T13:41:19.268Z,46.53
2022-09-23T13:44:00.453Z,47.73
2022-09-23T13:46:35.284Z,48.33
2022-09-23T13:49:03.607Z,48.47
2022-09-23T13:51:35.159Z,49.43
2022-09-23T13:54:06.154Z,49.37
2022-09-23T13:56:36.766Z,48.94
2022-09-23T13:59:20.008Z,48.75
2022-09-23T14:01:48.682Z,48.40
2022-09-23T14:04:25.255Z,48.21
2022-09-23T14:06:54.720Z,48.68
2022-09-23T14:09:27.687Z,48.49
2022-09-23T14:11:59.850Z,48.56
2022-09-23T14:14:30.477Z,48.91
2022-09-23T14:16:59.563Z,49.17
2022-09-23T14:19:27.848Z,49.77
2022-09-23T14:21:56.838Z,50.73
2022-09-23T14:24:36.784Z,50.74
2022-09-23T14:27:07.884Z,51.05
2022-09-23T14:29:42.259Z,49.50
2022-09-23T14:32:27.743Z,49.11
2022-09-23T14:35:03.851Z,48.96
2022-09-23T14:37:55.294Z,48.93
2022-09-23T14:40:33.825Z,49.35
2022-09-23T14:43:25.866Z,49.89
2022-09-23T14:45:59.174Z,50.07
2022-09-23T14:48:33.701Z,51.13
2022-09-23T14:51:06.491Z,52.24
2022-09-23T14:53:40.796Z,52.47
2022-09-23T14:56:11.762Z,53.46
2022-09-23T14:58:50.960Z,55.32
2022-09-23T15:01:32.922Z,56.66
2022-09-23T15:04:21.533Z,57.11
2022-09-23T15:06:56.723Z,58.39
2022-09-23T15:09:39.088Z,59.24
2022-09-23T15:12:13.846Z,59.78
2022-09-23T15:14:51.092Z,60.77
2022-09-23T15:17:32.792Z,61.40
2022-09-23T15:20:05.608Z,61.35
2022-09-23T15:22:51.289Z,61.66
2022-09-23T15:25:20.781Z,61.97
2022-09-23T15:27:56.484Z,62.31
2022-09-23T15:30:25.151Z,62.10
2022-09-23T15:32:54.001Z,62.51
2022-09-23T15:35:26.763Z,62.07
2022-09-23T15:38:01.860Z,62.08
2022-09-23T15:40:32.961Z,62.55
2022-09-23T15:43:20.597Z,62.53
2022-09-23T15:45:54.064Z,61.94
2022-09-23T15:48:26.115Z,61.84
2022-09-23T15:50:55.332Z,62.36
2022-09-23T15:53:28.489Z,62.52
2022-09-23T15:55:58.643Z,62.74
2022-09-23T15:58:27.751Z,62.39
2022-09-23T16:00:57.238Z,62.70
2022-09-23T16:03:30.392Z,62.84
2022-09-23T16:06:02.521Z,63.56
2022-09-23T16:08:33.295Z,63.53
2022-09-23T16:11:04.047Z,64.84
2022-09-23T16:13:32.256Z,64.97
2022-09-23T16:16:00.579Z,64.64
2022-09-23T16:18:29.199Z,65.67
2022-09-23T16:20:59.159Z,65.32
2022-09-23T16:23:37.231Z,64.95
2022-09-23T16:26:18.074Z,64.80
2022-09-23T16:28:48.302Z,64.71
2022-09-23T16:31:16.934Z,64.28
2022-09-23T16:33:46.490Z,63.85
2022-09-23T16:36:25.470Z,64.19
2022-09-23T16:38:57.519Z,64.84
2022-09-23T16:41:29.318Z,65.07
2022-09-23T16:44:00.755Z,65.52
2022-09-23T16:46:29.847Z,65.75
2022-09-23T16:48:59.116Z,66.22
2022-09-23T16:51:29.993Z,66.06
2022-09-23T16:53:59.574Z,66.28
2022-09-23T16:56:29.429Z,65.85
2022-09-23T16:58:57.665Z,65.74
2022-09-23T17:01:47.229Z,65.81
2022-09-23T17:04:18.478Z,65.40
2022-09-23T17:06:51.757Z,65.12
2022-09-23T17:09:26.304Z,64.99
2022-09-23T17:12:13.891Z,65.03
2022-09-23T17:14:42.059Z,64.92
2022-09-23T17:17:10.214Z,64.98
2022-09-23T17:19:41.507Z,64.99
2022-09-23T17:22:10.199Z,65.13
2022-09-23T17:24:38.398Z,65.27
2022-09-23T17:27:06.998Z,65.73
2022-09-23T17:29:35.184Z,65.89
2022-09-23T17:32:05.039Z,65.74
2022-09-23T17:34:33.591Z,65.50
2022-09-23T17:37:02.693Z,65.46
2022-09-23T17:39:31.777Z,65.35
2022-09-23T17:42:00.189Z,65.25
2022-09-23T17:44:28.457Z,65.28
2022-09-23T17:46:56.793Z,65.14
2022-09-23T17:49:25.209Z,65.36
2022-09-23T17:51:53.864Z,65.18
2022-09-23T17:54:21.931Z,65.34
2022-09-23T17:56:50.131Z,65.77
2022-09-23T17:59:18.362Z,66.07
2022-09-23T18:01:46.792Z,66.20
2022-09-23T18:04:15.142Z,66.58
2022-09-23T18:06:43.346Z,66.48
2022-09-23T18:09:11.568Z,67.04
2022-09-23T18:11:43.309Z,67.09
2022-09-23T18:14:17.622Z,67.43
2022-09-23T18:16:49.987Z,67.88
2022-09-23T18:19:20.483Z,68.97
2022-09-23T18:21:51.537Z,69.23
2022-09-23T18:24:35.971Z,69.18
2022-09-23T18:27:06.654Z,69.07
2022-09-23T18:29:35.319Z,69.00
2022-09-23T18:32:04.051Z,69.01
2022-09-23T18:34:32.989Z,68.85
2022-09-23T18:37:01.158Z,68.91
2022-09-23T18:39:29.519Z,68.84
2022-09-23T18:41:57.591Z,69.06
2022-09-23T18:44:25.851Z,69.04
2022-09-23T18:46:53.934Z,69.19
2022-09-23T18:49:41.013Z,69.26
2022-09-23T18:52:09.295Z,69.41
2022-09-23T18:54:37.488Z,69.45
2022-09-23T18:57:05.775Z,69.59
2022-09-23T18:59:33.958Z,69.42
2022-09-23T19:02:02.700Z,69.50
2022-09-23T19:04:31.022Z,69.69
2022-09-23T19:06:59.216Z,69.94
2022-09-23T19:09:27.396Z,70.32
2022-09-23T19:11:55.569Z,70.69
2022-09-23T19:14:23.909Z,70.70
2022-09-23T19:16:52.412Z,70.99
2022-09-23T19:19:20.624Z,71.22
2022-09-23T19:21:48.730Z,71.04
2022-09-23T19:24:20.107Z,71.10
2022-09-23T19:26:48.923Z,71.58
2022-09-23T19:29:21.925Z,71.65
2022-09-23T19:31:51.297Z,71.67
2022-09-23T19:34:26.027Z,71.68
2022-09-23T19:36:57.458Z,71.54
2022-09-23T19:39:31.432Z,71.51
2022-09-23T19:41:59.522Z,71.58
2022-09-23T19:44:28.100Z,71.55
2022-09-23T19:46:57.430Z,71.72
2022-09-23T19:49:26.087Z,71.81
2022-09-23T19:51:55.988Z,71.73
2022-09-23T19:54:27.655Z,71.55
2022-09-23T19:56:56.205Z,71.42
2022-09-23T19:59:26.595Z,71.22
2022-09-23T20:01:55.318Z,70.95
2022-09-23T20:04:23.553Z,71.07
2022-09-23T20:06:51.873Z,71.05
2022-09-23T20:09:20.209Z,71.27
2022-09-23T20:11:48.326Z,71.52
2022-09-23T20:14:19.149Z,72.00
2022-09-23T20:16:47.468Z,71.96
2022-09-23T20:19:15.811Z,72.04
2022-09-23T20:21:44.104Z,71.92
2022-09-23T20:24:13.303Z,71.80
2022-09-23T20:27:00.522Z,71.64
2022-09-23T20:29:28.971Z,71.73
2022-09-23T20:31:58.761Z,71.76
2022-09-23T20:34:30.003Z,71.71
2022-09-23T20:36:59.470Z,71.62
2022-09-23T20:39:28.454Z,71.68
2022-09-23T20:41:56.616Z,71.58
2022-09-23T20:44:25.271Z,71.94
2022-09-23T20:46:53.493Z,71.59
2022-09-23T20:49:22.809Z,71.45
2022-09-23T20:51:51.187Z,71.30
2022-09-23T20:54:19.845Z,71.22
2022-09-23T20:56:48.258Z,71.41
2022-09-23T20:59:18.401Z,71.16
2022-09-23T21:01:46.810Z,70.99
2022-09-23T21:04:15.444Z,71.02
2022-09-23T21:06:43.596Z,71.17
2022-09-23T21:09:11.715Z,70.80
2022-09-23T21:11:39.986Z,70.79
2022-09-23T21:14:08.565Z,70.67
2022-09-23T21:16:36.918Z,70.45
2022-09-23T21:19:08.253Z,70.71
2022-09-23T21:21:36.755Z,70.61
2022-09-23T21:24:32.533Z,70.83
2022-09-23T21:26:53.496Z,70.76
2022-09-23T21:29:21.901Z,70.83
2022-09-23T21:31:50.191Z,70.68
2022-09-23T21:34:19.605Z,70.88
2022-09-23T21:36:48.407Z,70.71
2022-09-23T21:39:16.771Z,70.53
2022-09-23T21:41:45.462Z,71.20
2022-09-23T21:44:14.022Z,71.46
2022-09-23T21:46:42.432Z,71.62
2022-09-23T21:49:10.705Z,71.98
2022-09-23T21:51:41.361Z,72.26
2022-09-23T21:54:14.565Z,72.85
2022-09-23T21:56:43.936Z,72.89
2022-09-23T21:59:12.611Z,73.16
2022-09-23T22:01:48.358Z,73.32
2022-09-23T22:04:20.767Z,73.83
2022-09-23T22:06:51.632Z,74.10
2022-09-23T22:09:21.281Z,75.13
2022-09-23T22:12:09.992Z,75.57
2022-09-23T22:14:39.232Z,75.52
2022-09-23T22:17:10.693Z,75.39
2022-09-23T22:19:45.763Z,75.57
2022-09-23T22:22:17.800Z,74.94
2022-09-23T22:24:48.281Z,75.29
2022-09-23T22:27:20.234Z,74.99
2022-09-23T22:30:07.463Z,75.32
2022-09-23T22:32:41.780Z,75.54
2022-09-23T22:35:18.011Z,75.51
2022-09-23T22:37:48.191Z,76.80
2022-09-23T22:40:16.745Z,77.07
2022-09-23T22:42:45.978Z,77.19
2022-09-23T22:45:14.319Z,77.53
2022-09-23T22:47:45.670Z,77.66
2022-09-23T22:50:14.903Z,77.64
2022-09-23T22:52:43.986Z,77.62
2022-09-23T22:55:14.282Z,77.49
2022-09-23T22:57:42.544Z,77.48
2022-09-23T23:00:12.697Z,76.91
2022-09-23T23:02:41.887Z,76.77
2022-09-23T23:05:10.141Z,76.58
2022-09-23T23:07:38.545Z,76.80
2022-09-23T23:10:10.522Z,76.54
2022-09-23T23:12:39.645Z,77.08
2022-09-23T23:15:12.457Z,77.56
2022-09-23T23:17:43.686Z,77.90
2022-09-23T23:20:12.076Z,77.42
2022-09-23T23:22:40.231Z,78.15
2022-09-23T23:25:09.861Z,77.85
2022-09-23T23:27:38.082Z,78.17
2022-09-23T23:30:07.335Z,77.66
2022-09-23T23:32:35.571Z,77.95
2022-09-23T23:35:04.016Z,78.48
2022-09-23T23:37:32.120Z,78.62
2022-09-23T23:40:00.386Z,78.75
2022-09-23T23:42:28.669Z,78.48
2022-09-23T23:44:56.839Z,78.18
2022-09-23T23:47:26.500Z,78.44
2022-09-23T23:49:54.765Z,78.33
2022-09-23T23:52:22.939Z,78.67
2022-09-23T23:54:51.821Z,78.55
2022-09-23T23:57:19.919Z,78.72
2022-09-23T23:59:48.168Z,78.66
